Portada
METAR-TAF:

METAR-TAF

Aeropuertos :

Trollhättan-Vänersborg, Suecia

latitud: 58-19N, longitud: 012-21E, altitud: 41 m

Observación

El informe se hizo hace 18 minutos, a las 03:20 UTC
Viento 4 kt del sur
Temperatura -2°C
Humedad 100%
Presión 1009 hPa
Visibilidad: 9000 m

METAR: ESGT 080320Z AUTO 18004KT 9000 NCD M02/M02 Q1009 REFZUP REUP

Hora: 05:38 (03:38 UTC)

Pronóstico

El informe se hizo hace 16 horas y 8 minutos, a las 11:30 UTC
Pronóstico válido del 07 a las 12 UTC al 07 a las 14 UTC
Viento 8 kt del oeste-noroeste
Visibilidad 10 km o más
Cielo nuboso a una altura de 3500 ft
Temporalmente
del 07 a las 12 UTC al 07 a las 14 UTC
Visibilidad: 4000 m
Cielo nuboso a una altura de 3000 ft, Cumulonimbus.
chaparrones de lluvia

TAF: ESGT 071130Z 0712/0714 30008KT 9999 BKN035 TEMPO 0712/0714 4000 SHRA BKN030CB

Observaciones y pronósticos meteorológicos de más de 4000 aeropuertos (mensajes METAR y TAF).

Los puntos amarillos y rojos representan las estaciones disponibles.

Ponga el ratón en el punto deseado para ver el nombre de la estación.

Haga clic para ver las observaciones y los pronósticos meteorológicos.

Para cambiar el mapa : haga clic en los botones verdes con una cruz de color negro para hacer un zoom, en el botón verde con un guión para alejar o en las flechas verdes para mapas adyacentes.


METAR-TAF: